Time;durP1;ratioP1;P1;durP2;ratioP2;P2;SDS_P1;SDS_P2;PMS_P1;PMS_P2;Temp;Humidity;BMP_temperature;BMP_pressure;BME280_temperature;BME280_humidity;BME280_pressure;Samples;Min_cycle;Max_cycle;Signal;HPM_P1;HPM_P2
2022/10/27 00:02:48;;;;;;;5.87;2.30;;;;;;;10.12;100.00;98599.13;6256905;28;20242;-40
2022/10/27 00:05:50;;;;;;;5.03;2.53;;;;;;;10.23;100.00;98602.81;6257254;28;20740;-41
2022/10/27 00:08:52;;;;;;;4.97;2.20;;;;;;;10.34;100.00;98608.25;6257680;28;20263;-41
2022/10/27 00:11:55;;;;;;;4.70;2.30;;;;;;;10.40;100.00;98603.53;6257450;28;20339;-41
2022/10/27 00:14:57;;;;;;;7.33;2.47;;;;;;;10.49;100.00;98616.13;6257089;28;20588;-42
2022/10/27 00:17:59;;;;;;;3.10;2.20;;;;;;;10.55;100.00;98613.94;6255790;28;20245;-41
2022/10/27 00:21:03;;;;;;;8.00;2.67;;;;;;;10.60;100.00;98616.25;6256486;28;20379;-43
2022/10/27 00:24:05;;;;;;;3.67;1.77;;;;;;;10.61;100.00;98615.31;6256717;28;20217;-41
2022/10/27 00:27:07;;;;;;;9.50;2.47;;;;;;;10.58;100.00;98613.72;6256023;28;20689;-41
2022/10/27 00:30:10;;;;;;;3.33;2.10;;;;;;;10.55;100.00;98619.22;6233714;28;20246;-41
2022/10/27 00:33:12;;;;;;;10.23;2.07;;;;;;;10.54;100.00;98620.16;6232184;28;20249;-40
2022/10/27 00:36:17;;;;;;;7.13;2.63;;;;;;;10.48;100.00;98617.91;6232245;28;20686;-40
2022/10/27 00:39:20;;;;;;;6.13;2.03;;;;;;;10.46;100.00;98633.00;6232691;28;20248;-41
2022/10/27 00:42:22;;;;;;;5.93;2.20;;;;;;;10.42;100.00;98626.22;6231954;28;20239;-41
2022/10/27 00:45:24;;;;;;;7.87;2.13;;;;;;;10.39;100.00;98630.84;6232249;28;20256;-41
2022/10/27 00:48:27;;;;;;;5.27;1.90;;;;;;;10.38;100.00;98635.31;6231961;28;20695;-41
2022/10/27 00:51:30;;;;;;;3.83;2.17;;;;;;;10.33;100.00;98648.78;6232570;28;20710;-42
2022/10/27 00:54:36;;;;;;;8.20;2.20;;;;;;;10.29;100.00;98638.50;6231558;28;20261;-42
2022/10/27 00:57:41;;;;;;;3.47;1.83;;;;;;;10.21;100.00;98639.00;6246340;28;20239;-41
2022/10/27 01:00:43;;;;;;;2.67;1.80;;;;;;;10.17;100.00;98640.13;6241171;28;20230;-41
2022/10/27 01:08:22;;;;;;;3.60;1.87;;;;;;;10.06;100.00;98649.66;6213127;28;20231;-40
2022/10/27 01:11:24;;;;;;;8.80;2.47;;;;;;;10.03;100.00;98645.41;6245005;28;20238;-42
2022/10/27 01:14:27;;;;;;;5.97;1.80;;;;;;;10.00;100.00;98641.16;6231139;28;20599;-40
2022/10/27 01:17:59;;;;;;;8.93;2.40;;;;;;;10.03;100.00;98645.41;6213237;28;20321;-40
2022/10/27 01:21:09;;;;;;;4.60;2.00;;;;;;;9.99;100.00;98644.75;6213231;28;20437;-42
2022/10/27 01:24:42;;;;;;;5.87;2.03;;;;;;;9.98;100.00;98643.03;6230377;28;20266;-40
2022/10/27 01:28:32;;;;;;;4.93;2.33;;;;;;;9.97;100.00;98646.66;6233755;28;20306;-41
2022/10/27 01:31:56;;;;;;;4.07;2.23;;;;;;;9.90;100.00;98650.59;6255393;28;20693;-41
2022/10/27 01:35:27;;;;;;;6.80;2.13;;;;;;;9.83;100.00;98644.00;6255374;28;20241;-40
2022/10/27 01:38:34;;;;;;;5.10;2.27;;;;;;;9.75;100.00;98653.34;6254979;28;20317;-41
2022/10/27 01:41:42;;;;;;;4.10;1.70;;;;;;;9.75;100.00;98651.56;6256939;28;20371;-43
2022/10/27 01:44:48;;;;;;;4.57;2.13;;;;;;;9.73;100.00;98652.56;6254844;28;20371;-41
2022/10/27 01:47:52;;;;;;;5.37;2.23;;;;;;;9.68;100.00;98654.66;6254921;28;20229;-41
2022/10/27 01:50:54;;;;;;;4.53;2.20;;;;;;;9.64;100.00;98651.34;6253753;28;20387;-41
2022/10/27 01:54:04;;;;;;;11.20;3.23;;;;;;;9.61;100.00;98651.53;6259852;28;20201;-41
2022/10/27 01:57:15;;;;;;;4.53;2.23;;;;;;;9.60;100.00;98647.19;6254386;28;20205;-41
2022/10/27 02:00:18;;;;;;;4.73;2.57;;;;;;;9.61;100.00;98656.81;6253557;28;20791;-40
2022/10/27 02:03:34;;;;;;;3.17;1.80;;;;;;;9.58;100.00;98660.47;6250187;28;20221;-41
2022/10/27 02:07:08;;;;;;;10.43;2.27;;;;;;;9.57;100.00;98657.94;6254178;28;20238;-41
2022/10/27 02:10:23;;;;;;;2.60;2.10;;;;;;;9.53;100.00;98669.59;6236809;28;20233;-41
2022/10/27 02:13:27;;;;;;;4.97;1.80;;;;;;;9.48;100.00;98663.78;6254294;28;20240;-40
2022/10/27 02:16:33;;;;;;;7.10;2.00;;;;;;;9.46;100.00;98668.28;6253870;28;20229;-41
2022/10/27 02:19:37;;;;;;;3.93;2.40;;;;;;;9.42;100.00;98667.63;6255564;28;20277;-41
2022/10/27 02:22:42;;;;;;;3.33;2.10;;;;;;;9.41;100.00;98668.53;6236493;28;20244;-41
2022/10/27 02:26:07;;;;;;;5.63;2.50;;;;;;;9.38;100.00;98671.38;6254181;28;20233;-42
2022/10/27 02:29:17;;;;;;;4.93;1.97;;;;;;;9.36;100.00;98672.41;6253467;28;20240;-40
2022/10/27 02:32:22;;;;;;;5.63;2.30;;;;;;;9.33;100.00;98673.44;6254078;28;20322;-40
2022/10/27 02:35:24;;;;;;;4.30;2.00;;;;;;;9.31;100.00;98671.81;6258370;28;20230;-41
2022/10/27 02:38:26;;;;;;;5.00;2.30;;;;;;;9.28;100.00;98672.88;6258535;28;20328;-40
2022/10/27 02:41:29;;;;;;;5.70;2.10;;;;;;;9.19;100.00;98674.22;6258824;28;20566;-41
2022/10/27 02:44:31;;;;;;;3.27;2.10;;;;;;;9.19;100.00;98683.91;6256164;28;20240;-40
2022/10/27 02:47:33;;;;;;;3.43;1.90;;;;;;;9.17;100.00;98678.78;6256873;28;20232;-40
2022/10/27 02:50:35;;;;;;;6.50;1.93;;;;;;;9.19;100.00;98683.91;6259134;28;20233;-40
2022/10/27 02:53:37;;;;;;;8.93;2.70;;;;;;;9.22;100.00;98681.13;6258642;28;20264;-40
2022/10/27 02:56:39;;;;;;;8.70;2.40;;;;;;;9.19;100.00;98681.28;6258924;28;20239;-41
2022/10/27 02:59:41;;;;;;;4.47;1.93;;;;;;;9.11;100.00;98687.00;6253511;28;20635;-41
2022/10/27 03:02:46;;;;;;;4.27;2.07;;;;;;;9.16;100.00;98678.84;6263806;28;20301;-41
2022/10/27 03:05:49;;;;;;;4.43;2.50;;;;;;;9.16;100.00;98687.59;6252957;28;20232;-41
2022/10/27 03:08:51;;;;;;;4.73;2.33;;;;;;;9.13;100.00;98689.56;6235824;28;20225;-41
2022/10/27 03:11:53;;;;;;;7.87;2.30;;;;;;;9.10;100.00;98693.22;6253508;28;20225;-40
2022/10/27 03:14:55;;;;;;;6.33;2.30;;;;;;;9.11;100.00;98694.91;6252839;28;20230;-41
2022/10/27 03:17:57;;;;;;;5.57;2.40;;;;;;;9.10;100.00;98697.63;6253534;28;20248;-42
2022/10/27 03:20:59;;;;;;;9.57;2.40;;;;;;;9.10;100.00;98697.63;6252930;28;20330;-40
2022/10/27 03:24:01;;;;;;;7.77;2.00;;;;;;;9.13;100.00;98705.34;6255358;28;20309;-40
2022/10/27 03:27:03;;;;;;;9.33;2.57;;;;;;;9.11;100.00;98707.22;6257802;28;20227;-41
2022/10/27 03:30:07;;;;;;;5.00;2.10;;;;;;;9.06;100.00;98715.41;6257766;28;20226;-42
2022/10/27 03:33:09;;;;;;;4.80;2.30;;;;;;;9.00;100.00;98704.34;6258223;28;20213;-40
2022/10/27 03:36:12;;;;;;;8.40;2.40;;;;;;;8.96;100.00;98716.03;6258140;28;20244;-41
2022/10/27 03:39:15;;;;;;;3.83;2.10;;;;;;;8.93;100.00;98719.66;6257356;28;20209;-43
2022/10/27 03:42:17;;;;;;;2.23;1.77;;;;;;;8.92;100.00;98712.69;6255966;28;20309;-40
2022/10/27 03:45:19;;;;;;;6.97;2.50;;;;;;;8.87;100.00;98715.63;6257659;28;20293;-40
2022/10/27 03:48:21;;;;;;;4.77;1.93;;;;;;;8.81;100.00;98715.09;6257943;28;20233;-40
2022/10/27 03:51:23;;;;;;;2.33;2.10;;;;;;;8.74;100.00;98714.59;6257736;28;20319;-41
2022/10/27 03:54:29;;;;;;;3.43;2.07;;;;;;;8.80;100.00;98714.25;6257307;28;20304;-40
2022/10/27 03:57:31;;;;;;;6.93;2.30;;;;;;;8.78;100.00;98710.84;6258551;28;20231;-42
2022/10/27 04:00:33;;;;;;;4.17;1.87;;;;;;;8.74;100.00;98725.13;6257728;28;20242;-40
2022/10/27 04:03:36;;;;;;;7.27;2.07;;;;;;;8.67;100.00;98718.53;6257427;28;20623;-41
2022/10/27 04:06:38;;;;;;;5.77;2.10;;;;;;;8.62;100.00;98723.19;6256894;28;20244;-41
2022/10/27 04:09:40;;;;;;;5.73;1.77;;;;;;;8.56;100.00;98723.53;6257285;28;20255;-41
2022/10/27 04:12:53;;;;;;;3.27;1.90;;;;;;;8.48;100.00;98734.44;6257520;28;20286;-40
2022/10/27 04:16:00;;;;;;;4.03;1.97;;;;;;;8.42;100.00;98736.59;6256720;28;20839;-41
2022/10/27 04:19:02;;;;;;;3.07;1.97;;;;;;;8.37;100.00;98726.31;6256554;28;20282;-40
2022/10/27 04:22:04;;;;;;;8.80;2.47;;;;;;;8.34;100.00;98731.75;6256704;28;20350;-41
2022/10/27 04:25:07;;;;;;;4.27;2.10;;;;;;;8.28;100.00;98734.69;6256806;28;20250;-40
2022/10/27 04:28:09;;;;;;;7.30;2.07;;;;;;;8.25;100.00;98734.00;6256326;28;20369;-40
2022/10/27 04:31:12;;;;;;;5.47;1.97;;;;;;;8.21;100.00;98738.56;6256360;28;20239;-41
2022/10/27 04:34:14;;;;;;;5.47;2.10;;;;;;;8.20;100.00;98746.53;6256078;28;20288;-40
2022/10/27 04:37:16;;;;;;;4.77;2.17;;;;;;;8.19;100.00;98736.94;6257028;28;20637;-40
2022/10/27 04:40:18;;;;;;;7.13;2.20;;;;;;;8.15;100.00;98746.78;6256851;28;20262;-40
2022/10/27 04:43:20;;;;;;;3.63;2.00;;;;;;;8.16;100.00;98740.59;6256344;28;20649;-40
2022/10/27 04:46:23;;;;;;;5.50;2.30;;;;;;;8.17;100.00;98749.34;6257426;28;20380;-40
2022/10/27 04:49:25;;;;;;;7.27;2.10;;;;;;;8.13;100.00;98746.00;6255957;28;20262;-41
2022/10/27 04:52:27;;;;;;;7.10;2.30;;;;;;;8.13;100.00;98756.53;6256098;28;20279;-41
2022/10/27 04:55:31;;;;;;;3.63;2.20;;;;;;;8.15;100.00;98749.41;6255571;28;20317;-40
2022/10/27 04:58:33;;;;;;;3.70;1.70;;;;;;;8.14;100.00;98755.59;6255670;28;20231;-40
2022/10/27 05:01:35;;;;;;;1.70;1.60;;;;;;;8.11;100.00;98761.00;6254700;28;20320;-40
2022/10/27 05:04:37;;;;;;;2.90;2.03;;;;;;;8.09;100.00;98763.72;6255647;28;20281;-40
2022/10/27 05:07:39;;;;;;;6.37;1.87;;;;;;;8.02;100.00;98766.75;6255806;28;20239;-40
2022/10/27 05:10:42;;;;;;;6.90;2.10;;;;;;;7.98;100.00;98763.47;6255601;28;20234;-42
2022/10/27 05:13:49;;;;;;;5.37;1.80;;;;;;;7.93;100.00;98762.84;6255542;28;20315;-41
2022/10/27 05:16:51;;;;;;;5.13;1.90;;;;;;;7.89;100.00;98765.69;6259776;28;20311;-40
2022/10/27 05:19:53;;;;;;;4.67;1.77;;;;;;;7.86;100.00;98771.13;6260678;28;20235;-40
2022/10/27 05:22:56;;;;;;;4.03;1.80;;;;;;;7.83;100.00;98766.88;6242141;28;20706;-40
2022/10/27 05:25:58;;;;;;;4.73;1.70;;;;;;;7.81;100.00;98773.13;6260437;28;20284;-40
2022/10/27 05:29:00;;;;;;;11.43;1.80;;;;;;;7.78;100.00;98772.38;6259879;28;20238;-40
2022/10/27 05:32:02;;;;;;;2.97;1.53;;;;;;;7.78;100.00;98774.16;6255472;28;20368;-40
2022/10/27 05:35:05;;;;;;;6.30;1.80;;;;;;;7.78;100.00;98785.53;6254698;28;20333;-40
2022/10/27 05:38:07;;;;;;;5.13;2.00;;;;;;;7.79;100.00;98784.56;6237416;28;20638;-41
2022/10/27 05:41:09;;;;;;;2.83;2.00;;;;;;;7.79;100.00;98789.81;6254258;28;20230;-40
2022/10/27 05:44:12;;;;;;;3.17;1.83;;;;;;;7.78;100.00;98785.53;6270702;28;20733;-40
2022/10/27 05:47:14;;;;;;;3.97;1.70;;;;;;;7.80;100.00;98782.78;6268751;28;20276;-40
2022/10/27 05:50:16;;;;;;;5.47;1.90;;;;;;;7.78;100.00;98782.91;6254327;28;20235;-41
2022/10/27 05:53:20;;;;;;;2.50;1.77;;;;;;;7.78;100.00;98785.53;6236466;28;20230;-42
2022/10/27 05:56:22;;;;;;;9.80;2.27;;;;;;;7.79;100.00;98787.19;6253331;28;20238;-40
2022/10/27 05:59:24;;;;;;;7.63;2.23;;;;;;;7.79;100.00;98795.06;6269236;28;20231;-41
2022/10/27 06:02:26;;;;;;;2.40;1.70;;;;;;;7.83;100.00;98790.53;6253603;28;20229;-40
2022/10/27 06:05:30;;;;;;;4.57;2.00;;;;;;;7.85;100.00;98795.72;6253219;28;20227;-40
2022/10/27 06:08:32;;;;;;;4.83;2.10;;;;;;;7.89;100.00;98802.47;6236590;28;20645;-40
2022/10/27 06:11:34;;;;;;;3.73;2.27;;;;;;;7.90;100.00;98809.44;6253638;28;20383;-40
2022/10/27 06:14:37;;;;;;;4.07;1.73;;;;;;;7.92;100.00;98815.47;6253227;28;20237;-40
2022/10/27 06:17:39;;;;;;;3.63;2.20;;;;;;;7.97;100.00;98816.97;6252918;28;20322;-41
2022/10/27 06:20:42;;;;;;;2.87;2.17;;;;;;;8.00;100.00;98821.19;6253118;28;20231;-41
2022/10/27 06:23:49;;;;;;;3.60;1.87;;;;;;;8.01;100.00;98829.00;6252715;28;20293;-40
2022/10/27 06:26:52;;;;;;;3.07;1.80;;;;;;;8.07;100.00;98830.47;6253978;28;20342;-40
2022/10/27 06:29:57;;;;;;;5.53;2.00;;;;;;;8.11;100.00;98838.09;6253062;28;20231;-41
2022/10/27 06:33:00;;;;;;;7.23;2.00;;;;;;;8.19;100.00;98839.47;6253536;28;20238;-40
2022/10/27 06:36:02;;;;;;;4.10;1.97;;;;;;;8.24;100.00;98840.09;6252532;28;20356;-40
2022/10/27 06:39:04;;;;;;;5.00;1.63;;;;;;;8.26;100.00;98848.78;6253264;28;20243;-41
2022/10/27 06:42:06;;;;;;;3.43;1.90;;;;;;;8.31;100.00;98850.25;6253155;28;20225;-40
2022/10/27 06:45:09;;;;;;;2.90;1.80;;;;;;;8.38;100.00;98854.28;6253099;28;20231;-41
2022/10/27 06:48:12;;;;;;;3.70;2.30;;;;;;;8.43;100.00;98868.03;6252573;28;20219;-41
2022/10/27 06:51:14;;;;;;;4.50;2.53;;;;;;;8.54;100.00;98858.72;6253030;28;20219;-40
2022/10/27 06:54:17;;;;;;;3.93;2.30;;;;;;;8.62;100.00;98851.25;6253937;28;20220;-40
2022/10/27 06:57:19;;;;;;;4.73;2.47;;;;;;;8.81;100.00;98852.81;6255358;28;20221;-40
2022/10/27 07:00:22;;;;;;;5.00;2.60;;;;;;;8.93;100.00;98863.63;6257897;28;20693;-41
2022/10/27 07:03:24;;;;;;;4.73;3.00;;;;;;;9.06;100.00;98859.38;6257702;28;20251;-40
2022/10/27 07:06:27;;;;;;;5.47;2.70;;;;;;;9.16;100.00;98858.78;6257302;28;20227;-40
2022/10/27 07:09:29;;;;;;;4.70;3.10;;;;;;;9.29;100.00;98863.34;6258092;28;20227;-41
2022/10/27 07:12:32;;;;;;;5.50;2.80;;;;;;;9.37;100.00;98869.91;6236134;28;20591;-40
2022/10/27 07:15:37;;;;;;;6.30;3.03;;;;;;;9.46;100.00;98871.16;6258144;28;20245;-41
2022/10/27 07:18:39;;;;;;;3.67;2.80;;;;;;;9.57;100.00;98872.25;6257740;28;20314;-40
2022/10/27 07:21:41;;;;;;;5.37;2.87;;;;;;;9.66;100.00;98872.66;6256805;28;20238;-40
2022/10/27 07:24:43;;;;;;;7.33;2.53;;;;;;;9.70;100.00;98872.38;6260431;28;20299;-40
2022/10/27 07:27:52;;;;;;;5.50;2.90;;;;;;;9.81;100.00;98882.31;6239283;28;20711;-40
2022/10/27 07:30:56;;;;;;;4.27;2.53;;;;;;;9.92;100.00;98877.25;6257652;28;20708;-41
2022/10/27 07:33:58;;;;;;;3.87;2.70;;;;;;;10.04;100.00;98879.19;6256897;28;20234;-41
2022/10/27 07:37:00;;;;;;;5.63;2.57;;;;;;;10.13;100.00;98876.00;6258000;28;20238;-40
2022/10/27 07:40:03;;;;;;;3.97;2.93;;;;;;;10.26;100.00;98874.38;6261993;28;20244;-40
2022/10/27 07:43:05;;;;;;;5.17;2.97;;;;;;;10.42;100.00;98881.34;6260217;28;20321;-40
2022/10/27 07:46:09;;;;;;;5.17;2.67;;;;;;;10.51;100.00;98879.00;6256802;28;20240;-41
2022/10/27 07:49:11;;;;;;;7.60;3.17;;;;;;;10.60;100.00;98878.44;6256431;28;20241;-40
2022/10/27 07:52:13;;;;;;;4.77;2.73;;;;;;;188.01;100.00;60274.75;6256635;28;20237;-41
2022/10/27 07:55:18;;;;;;;3.67;2.57;;;;;;;11.04;100.00;60274.75;6256900;28;20241;-40
2022/10/27 07:58:20;;;;;;;8.63;2.90;;;;;;;11.03;100.00;60274.75;6258020;28;20735;-40
2022/10/27 08:01:22;;;;;;;4.63;3.10;;;;;;;-144.22;100.00;60274.75;6257161;28;20230;-40
2022/10/27 08:04:25;;;;;;;3.77;2.67;;;;;;;13.96;100.00;60274.75;6255926;28;20343;-40
2022/10/27 08:07:27;;;;;;;5.27;3.33;;;;;;;-144.22;100.00;60274.75;6239369;28;20595;-40
2022/10/27 08:10:31;;;;;;;4.60;3.33;;;;;;;-144.22;100.00;60274.75;6255897;28;20376;-40
2022/10/27 08:13:33;;;;;;;5.93;3.20;;;;;;;12.27;100.00;60274.75;6257024;28;20641;-40
2022/10/27 08:16:35;;;;;;;3.43;2.90;;;;;;;-144.22;100.00;60274.75;6256049;28;20381;-40
2022/10/27 08:19:38;;;;;;;6.33;3.27;;;;;;;-144.22;100.00;60274.75;6256070;28;20231;-40
2022/10/27 08:22:41;;;;;;;4.80;3.03;;;;;;;12.52;100.00;60274.75;6256252;28;20235;-40
2022/10/27 08:25:43;;;;;;;5.73;2.70;;;;;;;13.63;100.00;60274.75;6257131;28;20240;-41
2022/10/27 08:28:47;;;;;;;5.93;2.40;;;;;;;-144.22;100.00;60274.75;6256727;28;20231;-40
2022/10/27 08:31:49;;;;;;;5.37;3.00;;;;;;;-144.22;100.00;60274.75;6238113;28;20261;-40
2022/10/27 08:34:51;;;;;;;6.93;2.53;;;;;;;-144.22;100.00;60274.75;6275668;28;20243;-42
2022/10/27 08:38:05;;;;;;;5.30;2.10;;;;;;;-144.22;100.00;60274.75;6260175;28;20215;-40
2022/10/27 08:41:19;;;;;;;3.23;2.53;;;;;;;-144.22;100.00;60274.75;6255300;28;20606;-41
2022/10/27 08:44:49;;;;;;;4.07;2.80;;;;;;;-144.22;100.00;60274.75;6238187;28;20228;-41
2022/10/27 08:47:57;;;;;;;3.47;2.40;;;;;;;-144.22;100.00;60274.75;6256016;28;20231;-42
2022/10/27 08:51:00;;;;;;;8.07;3.00;;;;;;;-144.22;100.00;60274.75;6256120;28;20269;-41
2022/10/27 08:54:04;;;;;;;5.37;3.20;;;;;;;-144.22;100.00;60274.75;6254765;28;20215;-40
2022/10/27 08:57:12;;;;;;;6.23;3.43;;;;;;;-144.22;100.00;60274.75;6255822;28;20220;-42
2022/10/27 09:00:15;;;;;;;7.30;3.80;;;;;;;15.25;100.00;60274.75;6254198;28;20543;-41
2022/10/27 09:03:40;;;;;;;4.80;3.30;;;;;;;15.84;100.00;60274.75;6254251;28;20247;-41
2022/10/27 09:06:57;;;;;;;4.57;3.40;;;;;;;-144.22;100.00;60274.75;6254337;28;20235;-40
2022/10/27 09:10:33;;;;;;;6.03;3.53;;;;;;;-144.22;100.00;60274.75;6255039;28;20235;-42
2022/10/27 09:13:46;;;;;;;5.70;3.90;;;;;;;21.74;100.00;60274.75;6242545;28;20231;-40
2022/10/27 09:17:02;;;;;;;6.77;3.60;;;;;;;16.32;100.00;60274.75;6254597;28;20308;-40
2022/10/27 09:20:13;;;;;;;5.43;3.67;;;;;;;16.51;100.00;60274.75;6253770;28;20341;-42
2022/10/27 09:23:18;;;;;;;9.13;4.87;;;;;;;-144.22;100.00;60274.75;6254400;28;20237;-40
2022/10/27 09:26:29;;;;;;;10.40;4.73;;;;;;;-144.22;100.00;60274.75;6254608;28;20729;-41
2022/10/27 09:29:35;;;;;;;6.07;4.70;;;;;;;-144.22;100.00;60274.75;6254442;28;20238;-40
2022/10/27 09:32:40;;;;;;;7.23;4.53;;;;;;;-144.22;100.00;60274.75;6254971;28;20237;-42
2022/10/27 09:35:43;;;;;;;7.77;3.90;;;;;;;-144.22;100.00;60274.75;6256286;28;20222;-42
2022/10/27 09:38:45;;;;;;;8.53;4.47;;;;;;;-144.22;100.00;60274.75;6257450;28;20231;-41
2022/10/27 09:41:51;;;;;;;6.13;4.80;;;;;;;-144.22;100.00;60274.75;6253734;28;20223;-40
2022/10/27 09:44:56;;;;;;;10.37;5.20;;;;;;;-144.22;100.00;60274.75;6253969;28;20239;-40
2022/10/27 09:48:04;;;;;;;8.93;5.17;;;;;;;-144.22;100.00;60274.75;6253756;28;20239;-42
2022/10/27 09:51:17;;;;;;;8.43;5.87;;;;;;;-144.22;100.00;60274.75;6254576;28;20234;-41
2022/10/27 09:54:29;;;;;;;8.07;5.47;;;;;;;-144.22;100.00;60274.75;6255250;28;20229;-41
2022/10/27 09:57:34;;;;;;;7.93;4.97;;;;;;;-144.22;100.00;60274.75;6237637;28;20227;-41
2022/10/27 10:00:36;;;;;;;10.90;5.77;;;;;;;-144.22;100.00;60274.75;6254224;28;20318;-42
2022/10/27 10:03:39;;;;;;;6.43;4.93;;;;;;;-144.22;100.00;60274.75;6251199;28;20243;-42
2022/10/27 10:06:41;;;;;;;8.87;5.13;;;;;;;-144.22;100.00;60274.75;6253809;28;20317;-41
2022/10/27 10:09:44;;;;;;;10.60;5.93;;;;;;;-144.22;100.00;60274.75;6254257;28;20244;-41
2022/10/27 10:13:08;;;;;;;10.93;6.10;;;;;;;-144.22;100.00;60274.75;6239868;28;20774;-41
2022/10/27 10:16:10;;;;;;;7.87;5.33;;;;;;;-144.22;100.00;60274.75;6227475;28;20707;-42
2022/10/27 10:19:20;;;;;;;7.53;5.00;;;;;;;-144.22;100.00;60274.75;6229133;28;20237;-43
2022/10/27 10:22:29;;;;;;;6.20;5.30;;;;;;;-144.22;100.00;60274.75;6252943;28;20235;-41
2022/10/27 10:25:38;;;;;;;8.67;5.63;;;;;;;16.92;100.00;60274.75;6242452;28;20231;-43
2022/10/27 10:28:42;;;;;;;8.47;6.10;;;;;;;-144.22;100.00;60274.75;6234748;28;20232;-47
2022/10/27 10:31:44;;;;;;;9.33;5.97;;;;;;;20.44;100.00;60274.75;6245530;28;20219;-41
2022/10/27 10:34:47;;;;;;;9.83;5.70;;;;;;;-144.22;100.00;60274.75;6231243;28;20236;-43
2022/10/27 10:37:50;;;;;;;11.57;6.67;;;;;;;-144.22;100.00;60274.75;6246072;28;20374;-44
2022/10/27 10:41:01;;;;;;;10.43;6.10;;;;;;;-144.22;100.00;60274.75;6234937;28;20742;-42
2022/10/27 10:44:10;;;;;;;12.43;5.77;;;;;;;-144.22;100.00;60274.75;6242858;28;20610;-42
2022/10/27 10:47:29;;;;;;;8.17;5.03;;;;;;;20.20;100.00;60274.75;6234737;28;20235;-43
2022/10/27 10:50:44;;;;;;;6.87;4.70;;;;;;;-144.22;100.00;60274.75;6251001;28;20232;-42
2022/10/27 10:53:52;;;;;;;9.47;4.60;;;;;;;21.74;100.00;60274.75;6245759;28;20231;-42
2022/10/27 10:56:55;;;;;;;7.63;3.67;;;;;;;-144.22;100.00;60274.75;6251929;28;20249;-42
2022/10/27 10:59:57;;;;;;;7.10;4.60;;;;;;;-144.22;100.00;60274.75;6247266;28;20242;-42
2022/10/27 11:03:14;;;;;;;7.07;3.97;;;;;;;-144.22;100.00;60274.75;6250920;28;20361;-42
2022/10/27 11:06:20;;;;;;;4.00;3.07;;;;;;;21.74;100.00;60274.75;6232392;28;20369;-41
2022/10/27 11:09:30;;;;;;;9.13;3.97;;;;;;;-144.22;100.00;60274.75;6238154;28;20366;-43
2022/10/27 11:12:49;;;;;;;6.47;3.77;;;;;;;20.38;100.00;60274.75;6232647;28;20308;-41
2022/10/27 11:15:59;;;;;;;6.33;3.13;;;;;;;-144.22;100.00;60274.75;6234762;28;20258;-43
2022/10/27 11:19:06;;;;;;;5.60;3.07;;;;;;;-144.22;100.00;60274.75;6235570;28;20668;-43
2022/10/27 11:22:18;;;;;;;7.30;3.47;;;;;;;-144.22;100.00;60274.75;6245546;28;20257;-43
2022/10/27 11:25:27;;;;;;;5.20;2.90;;;;;;;-144.22;100.00;60274.75;6248799;28;20242;-43
2022/10/27 11:28:47;;;;;;;4.53;3.50;;;;;;;-144.22;100.00;60274.75;6250578;28;20254;-43
2022/10/27 11:32:12;;;;;;;6.40;3.30;;;;;;;20.75;100.00;60274.75;6240575;28;20573;-42
2022/10/27 11:35:32;;;;;;;4.83;2.80;;;;;;;-144.22;100.00;60274.75;6236497;28;20702;-43
2022/10/27 11:38:55;;;;;;;6.73;3.97;;;;;;;20.41;100.00;60274.75;6247073;28;20235;-44
2022/10/27 11:42:20;;;;;;;7.37;3.73;;;;;;;20.25;100.00;60274.75;6243839;28;20224;-41
2022/10/27 11:45:48;;;;;;;6.63;4.23;;;;;;;-144.22;100.00;60274.75;6231481;28;20248;-43
2022/10/27 11:48:57;;;;;;;7.53;4.10;;;;;;;19.75;61.03;98857.16;6235278;28;20228;-43
2022/10/27 11:52:13;;;;;;;6.47;3.97;;;;;;;19.70;61.52;98853.22;6250621;28;20698;-42
2022/10/27 11:55:25;;;;;;;6.93;4.07;;;;;;;19.92;60.84;98851.94;6234862;28;20227;-41
2022/10/27 11:59:07;;;;;;;6.47;3.67;;;;;;;19.72;61.70;98853.91;6238004;28;20378;-43
2022/10/27 12:02:29;;;;;;;5.00;3.20;;;;;;;20.18;100.00;60274.75;6219543;28;20234;-41
2022/10/27 12:05:46;;;;;;;5.23;2.90;;;;;;;-144.22;100.00;60274.75;6238180;28;20227;-41
2022/10/27 12:09:13;;;;;;;5.30;3.73;;;;;;;-144.22;100.00;60274.75;6249830;28;20243;-41
2022/10/27 12:12:32;;;;;;;7.20;3.70;;;;;;;20.70;100.00;60274.75;6258305;28;20280;-41
2022/10/27 12:15:49;;;;;;;5.73;3.20;;;;;;;-144.22;100.00;60274.75;6250515;28;20719;-42
2022/10/27 12:19:12;;;;;;;7.00;3.40;;;;;;;-144.22;100.00;60274.75;6252296;28;20266;-42
2022/10/27 12:22:36;;;;;;;7.63;3.57;;;;;;;20.32;100.00;60274.75;6253392;28;20258;-42
2022/10/27 12:25:58;;;;;;;12.07;4.10;;;;;;;-144.22;100.00;60274.75;6243494;28;20596;-41
2022/10/27 12:29:04;;;;;;;8.40;3.67;;;;;;;-144.22;100.00;60274.75;6249644;28;20247;-42
2022/10/27 12:32:23;;;;;;;7.03;3.33;;;;;;;20.62;100.00;60274.75;6218539;28;20656;-42
2022/10/27 12:35:29;;;;;;;4.17;3.20;;;;;;;-144.22;100.00;60274.75;6220499;28;20483;-42
2022/10/27 12:38:32;;;;;;;6.53;3.57;;;;;;;-144.22;100.00;60274.75;6215748;28;20710;-42
2022/10/27 12:41:50;;;;;;;6.17;3.27;;;;;;;-144.22;100.00;60274.75;6215904;28;20235;-43
2022/10/27 12:44:55;;;;;;;6.67;3.33;;;;;;;21.55;100.00;60274.75;6215938;28;20770;-42
2022/10/27 12:48:18;;;;;;;6.73;3.37;;;;;;;-144.22;100.00;60274.75;6211028;28;20224;-43
2022/10/27 12:51:36;;;;;;;6.77;3.50;;;;;;;-144.22;100.00;60274.75;6212504;28;21447;-42
2022/10/27 12:54:53;;;;;;;5.57;3.20;;;;;;;23.00;100.00;60274.75;6209969;28;20220;-42
2022/10/27 12:58:04;;;;;;;7.20;3.90;;;;;;;-144.22;100.00;60274.75;6205652;28;20220;-42
2022/10/27 13:01:26;;;;;;;5.70;3.60;;;;;;;-144.22;100.00;60274.75;6208736;28;20236;-42
2022/10/27 13:05:04;;;;;;;8.10;3.30;;;;;;;-144.22;100.00;60274.75;6213504;28;20462;-44
2022/10/27 13:08:34;;;;;;;7.20;3.70;;;;;;;23.52;100.00;60274.75;6226168;28;20892;-42
2022/10/27 13:11:39;;;;;;;7.23;3.57;;;;;;;-144.22;100.00;60274.75;6216441;28;20225;-42
2022/10/27 13:14:50;;;;;;;6.17;4.20;;;;;;;-144.22;100.00;60274.75;6213926;28;20231;-42
2022/10/27 13:18:10;;;;;;;8.23;4.93;;;;;;;-144.22;100.00;60274.75;6217391;28;20224;-44
2022/10/27 13:21:26;;;;;;;8.40;4.57;;;;;;;-144.22;100.00;60274.75;6221981;28;20702;-41
2022/10/27 13:24:49;;;;;;;7.77;4.70;;;;;;;-144.22;100.00;60274.75;6217159;28;20306;-41
2022/10/27 13:28:07;;;;;;;6.83;4.60;;;;;;;21.60;100.00;60274.75;6226329;28;20239;-42
2022/10/27 13:31:18;;;;;;;5.23;4.20;;;;;;;-144.22;100.00;60274.75;6240333;28;20227;-41
2022/10/27 13:34:20;;;;;;;6.53;3.70;;;;;;;-144.22;100.00;60274.75;6235451;28;20621;-41
2022/10/27 13:37:43;;;;;;;4.57;3.67;;;;;;;20.67;100.00;60274.75;6243179;28;20245;-42
2022/10/27 13:40:45;;;;;;;4.77;4.13;;;;;;;-144.22;100.00;60274.75;6250890;28;20224;-42
2022/10/27 13:43:54;;;;;;;9.53;4.60;;;;;;;-144.22;100.00;60274.75;6242276;28;20223;-42
2022/10/27 13:47:03;;;;;;;4.97;3.53;;;;;;;-144.22;100.00;60274.75;6264703;28;20231;-41
2022/10/27 13:50:32;;;;;;;6.70;4.17;;;;;;;-144.22;100.00;60274.75;6254136;28;20231;-44
2022/10/27 13:53:34;;;;;;;6.10;3.60;;;;;;;-144.22;100.00;60274.75;6254269;28;20704;-41
2022/10/27 13:56:38;;;;;;;5.50;3.43;;;;;;;18.74;100.00;60274.75;6253136;28;20330;-44
2022/10/27 13:59:43;;;;;;;5.73;3.30;;;;;;;-144.22;100.00;60274.75;6235749;28;20231;-43
2022/10/27 14:03:16;;;;;;;5.90;3.90;;;;;;;-144.22;100.00;60274.75;6253807;28;20269;-41
2022/10/27 14:06:30;;;;;;;6.80;3.27;;;;;;;-144.22;100.00;60274.75;6208527;28;20238;-41
2022/10/27 14:09:46;;;;;;;7.30;3.13;;;;;;;18.16;100.00;60274.75;6253900;28;20235;-41
2022/10/27 14:12:49;;;;;;;6.47;3.03;;;;;;;-144.22;100.00;60274.75;6253436;28;20278;-41
2022/10/27 14:15:59;;;;;;;8.83;2.90;;;;;;;17.85;100.00;60274.75;6254486;28;20244;-42
2022/10/27 14:19:03;;;;;;;5.00;2.97;;;;;;;-144.22;100.00;60274.75;6253207;28;20243;-43
2022/10/27 14:22:20;;;;;;;4.80;2.60;;;;;;;-144.22;100.00;60274.75;6233906;28;20227;-42
2022/10/27 14:25:30;;;;;;;5.03;2.93;;;;;;;-144.22;100.00;60274.75;6252952;28;20231;-42
2022/10/27 14:28:32;;;;;;;4.20;2.60;;;;;;;-144.22;100.00;60274.75;6253016;28;20242;-43
2022/10/27 14:31:36;;;;;;;4.13;2.73;;;;;;;-144.22;100.00;60274.75;6252872;28;20237;-41
2022/10/27 14:34:38;;;;;;;4.90;2.43;;;;;;;-144.22;100.00;60274.75;6252354;28;20289;-42
2022/10/27 14:37:41;;;;;;;3.77;2.00;;;;;;;-144.22;100.00;60274.75;6252603;28;20726;-41